sensor_id;sensor_type;location;lat;lon;timestamp;temperature;humidity
3846;DHT22;1938;50.812;7.738;2023-04-01T00:01:40;8.30;99.90
3846;DHT22;1938;50.812;7.738;2023-04-01T00:04:05;8.20;99.90
3846;DHT22;1938;50.812;7.738;2023-04-01T00:06:32;8.20;99.90
3846;DHT22;1938;50.812;7.738;2023-04-01T00:08:58;8.20;99.90
3846;DHT22;1938;50.812;7.738;2023-04-01T00:11:23;8.20;99.90
3846;DHT22;1938;50.812;7.738;2023-04-01T00:13:49;8.20;99.90
3846;DHT22;1938;50.812;7.738;2023-04-01T00:16:15;8.20;99.90
3846;DHT22;1938;50.812;7.738;2023-04-01T00:18:42;8.20;99.90
3846;DHT22;1938;50.812;7.738;2023-04-01T00:21:07;8.20;99.90
3846;DHT22;1938;50.812;7.738;2023-04-01T00:23:34;8.10;99.90
3846;DHT22;1938;50.812;7.738;2023-04-01T00:26:01;8.10;99.90
3846;DHT22;1938;50.812;7.738;2023-04-01T00:28:28;8.10;99.90
3846;DHT22;1938;50.812;7.738;2023-04-01T00:30:54;8.20;99.90
3846;DHT22;1938;50.812;7.738;2023-04-01T00:33:20;8.10;99.90
3846;DHT22;1938;50.812;7.738;2023-04-01T00:35:46;8.00;99.90
3846;DHT22;1938;50.812;7.738;2023-04-01T00:38:13;8.10;99.90
3846;DHT22;1938;50.812;7.738;2023-04-01T00:40:44;8.00;99.90
3846;DHT22;1938;50.812;7.738;2023-04-01T00:43:16;8.00;99.90
3846;DHT22;1938;50.812;7.738;2023-04-01T00:45:44;8.00;99.90
3846;DHT22;1938;50.812;7.738;2023-04-01T00:48:20;8.00;99.90
3846;DHT22;1938;50.812;7.738;2023-04-01T00:51:06;8.00;99.90
3846;DHT22;1938;50.812;7.738;2023-04-01T00:53:34;8.00;99.90
3846;DHT22;1938;50.812;7.738;2023-04-01T00:56:05;8.00;99.90
3846;DHT22;1938;50.812;7.738;2023-04-01T00:58:37;8.00;99.90
3846;DHT22;1938;50.812;7.738;2023-04-01T01:01:04;7.90;99.90
3846;DHT22;1938;50.812;7.738;2023-04-01T01:03:31;7.90;99.90
3846;DHT22;1938;50.812;7.738;2023-04-01T01:11:44;7.80;99.90
3846;DHT22;1938;50.812;7.738;2023-04-01T01:14:56;7.80;99.90
3846;DHT22;1938;50.812;7.738;2023-04-01T01:23:28;7.90;99.90
3846;DHT22;1938;50.812;7.738;2023-04-01T01:35:04;7.90;99.90
3846;DHT22;1938;50.812;7.738;2023-04-01T01:37:30;7.90;99.90
3846;DHT22;1938;50.812;7.738;2023-04-01T01:40:04;7.80;99.90
3846;DHT22;1938;50.812;7.738;2023-04-01T01:42:31;7.80;99.90
3846;DHT22;1938;50.812;7.738;2023-04-01T01:45:00;7.90;99.90
3846;DHT22;1938;50.812;7.738;2023-04-01T01:47:29;7.90;99.90
3846;DHT22;1938;50.812;7.738;2023-04-01T01:49:55;7.90;99.90
3846;DHT22;1938;50.812;7.738;2023-04-01T01:52:22;7.80;99.90
3846;DHT22;1938;50.812;7.738;2023-04-01T01:54:53;7.80;99.90
3846;DHT22;1938;50.812;7.738;2023-04-01T01:57:34;7.80;99.90
3846;DHT22;1938;50.812;7.738;2023-04-01T02:00:07;7.70;99.90
3846;DHT22;1938;50.812;7.738;2023-04-01T02:02:40;7.70;99.90
3846;DHT22;1938;50.812;7.738;2023-04-01T02:05:08;7.80;99.90
3846;DHT22;1938;50.812;7.738;2023-04-01T02:07:36;7.80;99.90
3846;DHT22;1938;50.812;7.738;2023-04-01T02:10:03;7.70;99.90
3846;DHT22;1938;50.812;7.738;2023-04-01T02:12:29;7.70;99.90
3846;DHT22;1938;50.812;7.738;2023-04-01T02:17:32;7.70;99.90
3846;DHT22;1938;50.812;7.738;2023-04-01T02:20:06;7.80;99.90
3846;DHT22;1938;50.812;7.738;2023-04-01T02:22:36;7.80;99.90
3846;DHT22;1938;50.812;7.738;2023-04-01T02:25:12;7.80;99.90
3846;DHT22;1938;50.812;7.738;2023-04-01T02:27:41;7.80;99.90
3846;DHT22;1938;50.812;7.738;2023-04-01T02:30:08;7.80;99.90
3846;DHT22;1938;50.812;7.738;2023-04-01T02:32:36;7.70;99.90
3846;DHT22;1938;50.812;7.738;2023-04-01T02:35:06;7.70;99.90
3846;DHT22;1938;50.812;7.738;2023-04-01T02:37:33;7.80;99.90
3846;DHT22;1938;50.812;7.738;2023-04-01T02:40:00;7.80;99.90
3846;DHT22;1938;50.812;7.738;2023-04-01T02:42:27;7.80;99.90
3846;DHT22;1938;50.812;7.738;2023-04-01T02:44:52;7.80;99.90
3846;DHT22;1938;50.812;7.738;2023-04-01T02:47:19;7.70;99.90
3846;DHT22;1938;50.812;7.738;2023-04-01T02:49:44;7.80;99.90
3846;DHT22;1938;50.812;7.738;2023-04-01T02:52:10;7.80;99.90
3846;DHT22;1938;50.812;7.738;2023-04-01T02:54:35;7.70;99.90
3846;DHT22;1938;50.812;7.738;2023-04-01T02:57:02;7.70;99.90
3846;DHT22;1938;50.812;7.738;2023-04-01T02:59:28;7.70;99.90
3846;DHT22;1938;50.812;7.738;2023-04-01T03:01:53;7.70;99.90
3846;DHT22;1938;50.812;7.738;2023-04-01T03:04:19;7.80;99.90
3846;DHT22;1938;50.812;7.738;2023-04-01T03:06:44;7.70;99.90
3846;DHT22;1938;50.812;7.738;2023-04-01T03:09:10;7.80;99.90
3846;DHT22;1938;50.812;7.738;2023-04-01T03:11:35;7.70;99.90
3846;DHT22;1938;50.812;7.738;2023-04-01T03:14:01;7.70;99.90
3846;DHT22;1938;50.812;7.738;2023-04-01T03:16:28;7.60;99.90
3846;DHT22;1938;50.812;7.738;2023-04-01T03:18:53;7.60;99.90
3846;DHT22;1938;50.812;7.738;2023-04-01T03:21:23;7.60;99.90
3846;DHT22;1938;50.812;7.738;2023-04-01T03:23:49;7.60;99.90
3846;DHT22;1938;50.812;7.738;2023-04-01T03:26:15;7.60;99.90
3846;DHT22;1938;50.812;7.738;2023-04-01T03:28:41;7.60;99.90
3846;DHT22;1938;50.812;7.738;2023-04-01T03:31:07;7.60;99.90
3846;DHT22;1938;50.812;7.738;2023-04-01T03:33:32;7.60;99.90
3846;DHT22;1938;50.812;7.738;2023-04-01T03:35:58;7.50;99.90
3846;DHT22;1938;50.812;7.738;2023-04-01T03:38:25;7.50;99.90
3846;DHT22;1938;50.812;7.738;2023-04-01T03:40:50;7.50;99.90
3846;DHT22;1938;50.812;7.738;2023-04-01T03:43:16;7.50;99.90
3846;DHT22;1938;50.812;7.738;2023-04-01T03:45:50;7.50;99.90
3846;DHT22;1938;50.812;7.738;2023-04-01T03:48:17;7.40;99.90
3846;DHT22;1938;50.812;7.738;2023-04-01T03:50:44;7.40;99.90
3846;DHT22;1938;50.812;7.738;2023-04-01T03:53:10;7.40;99.90
3846;DHT22;1938;50.812;7.738;2023-04-01T03:55:36;7.40;99.90
3846;DHT22;1938;50.812;7.738;2023-04-01T03:58:03;7.40;99.90
3846;DHT22;1938;50.812;7.738;2023-04-01T04:00:30;7.40;99.90
3846;DHT22;1938;50.812;7.738;2023-04-01T04:02:56;7.40;99.90
3846;DHT22;1938;50.812;7.738;2023-04-01T04:05:23;7.40;99.90
3846;DHT22;1938;50.812;7.738;2023-04-01T04:07:49;7.30;99.90
3846;DHT22;1938;50.812;7.738;2023-04-01T04:10:15;7.40;99.90
3846;DHT22;1938;50.812;7.738;2023-04-01T04:12:42;7.40;99.90
3846;DHT22;1938;50.812;7.738;2023-04-01T04:15:08;7.40;99.90
3846;DHT22;1938;50.812;7.738;2023-04-01T04:17:34;7.40;99.90
3846;DHT22;1938;50.812;7.738;2023-04-01T04:19:59;7.40;99.90
3846;DHT22;1938;50.812;7.738;2023-04-01T04:22:25;7.40;99.90
3846;DHT22;1938;50.812;7.738;2023-04-01T04:24:51;7.30;99.90
3846;DHT22;1938;50.812;7.738;2023-04-01T04:27:18;7.40;99.90
3846;DHT22;1938;50.812;7.738;2023-04-01T04:29:44;7.40;99.90
3846;DHT22;1938;50.812;7.738;2023-04-01T04:32:10;7.30;99.90
3846;DHT22;1938;50.812;7.738;2023-04-01T04:34:35;7.30;99.90
3846;DHT22;1938;50.812;7.738;2023-04-01T04:37:01;7.30;99.90
3846;DHT22;1938;50.812;7.738;2023-04-01T04:39:26;7.30;99.90
3846;DHT22;1938;50.812;7.738;2023-04-01T04:41:52;7.30;99.90
3846;DHT22;1938;50.812;7.738;2023-04-01T04:44:17;7.20;99.90
3846;DHT22;1938;50.812;7.738;2023-04-01T04:46:43;7.30;99.90
3846;DHT22;1938;50.812;7.738;2023-04-01T04:49:09;7.20;99.90
3846;DHT22;1938;50.812;7.738;2023-04-01T04:51:35;7.20;99.90
3846;DHT22;1938;50.812;7.738;2023-04-01T04:54:04;7.20;99.90
3846;DHT22;1938;50.812;7.738;2023-04-01T04:56:31;7.30;99.90
3846;DHT22;1938;50.812;7.738;2023-04-01T04:58:56;7.30;99.90
3846;DHT22;1938;50.812;7.738;2023-04-01T05:01:23;7.20;99.90
3846;DHT22;1938;50.812;7.738;2023-04-01T05:03:49;7.20;99.90
3846;DHT22;1938;50.812;7.738;2023-04-01T05:06:15;7.30;99.90
3846;DHT22;1938;50.812;7.738;2023-04-01T05:08:42;7.20;99.90
3846;DHT22;1938;50.812;7.738;2023-04-01T05:11:16;7.20;99.90
3846;DHT22;1938;50.812;7.738;2023-04-01T05:13:44;7.20;99.90
3846;DHT22;1938;50.812;7.738;2023-04-01T05:16:11;7.30;99.90
3846;DHT22;1938;50.812;7.738;2023-04-01T05:18:37;7.30;99.90
3846;DHT22;1938;50.812;7.738;2023-04-01T05:21:03;7.30;99.90
3846;DHT22;1938;50.812;7.738;2023-04-01T05:23:30;7.30;99.90
3846;DHT22;1938;50.812;7.738;2023-04-01T05:25:56;7.30;99.90
3846;DHT22;1938;50.812;7.738;2023-04-01T05:28:22;7.30;99.90
3846;DHT22;1938;50.812;7.738;2023-04-01T05:30:48;7.30;99.90
3846;DHT22;1938;50.812;7.738;2023-04-01T05:33:13;7.30;99.90
3846;DHT22;1938;50.812;7.738;2023-04-01T05:35:40;7.30;99.90
3846;DHT22;1938;50.812;7.738;2023-04-01T05:38:06;7.30;99.90
3846;DHT22;1938;50.812;7.738;2023-04-01T05:40:32;7.30;99.90
3846;DHT22;1938;50.812;7.738;2023-04-01T05:42:58;7.30;99.90
3846;DHT22;1938;50.812;7.738;2023-04-01T05:45:24;7.30;99.90
3846;DHT22;1938;50.812;7.738;2023-04-01T05:47:51;7.30;99.90
3846;DHT22;1938;50.812;7.738;2023-04-01T05:50:16;7.30;99.90
3846;DHT22;1938;50.812;7.738;2023-04-01T05:52:42;7.40;99.90
3846;DHT22;1938;50.812;7.738;2023-04-01T05:55:08;7.50;99.90
3846;DHT22;1938;50.812;7.738;2023-04-01T05:57:34;7.60;99.90
3846;DHT22;1938;50.812;7.738;2023-04-01T05:59:59;7.80;99.90
3846;DHT22;1938;50.812;7.738;2023-04-01T06:02:25;7.90;99.90
3846;DHT22;1938;50.812;7.738;2023-04-01T06:04:58;8.10;99.90
3846;DHT22;1938;50.812;7.738;2023-04-01T06:07:27;8.20;99.90
3846;DHT22;1938;50.812;7.738;2023-04-01T06:09:54;8.30;99.90
3846;DHT22;1938;50.812;7.738;2023-04-01T06:15:36;8.40;99.90
3846;DHT22;1938;50.812;7.738;2023-04-01T06:18:03;8.50;99.90
3846;DHT22;1938;50.812;7.738;2023-04-01T06:20:50;8.50;99.90
3846;DHT22;1938;50.812;7.738;2023-04-01T06:31:32;8.70;99.90
3846;DHT22;1938;50.812;7.738;2023-04-01T06:34:24;8.70;99.90
3846;DHT22;1938;50.812;7.738;2023-04-01T06:36:59;8.70;99.90
3846;DHT22;1938;50.812;7.738;2023-04-01T06:42:48;8.70;99.90
3846;DHT22;1938;50.812;7.738;2023-04-01T06:51:19;8.70;99.90
3846;DHT22;1938;50.812;7.738;2023-04-01T06:54:07;8.70;99.90
3846;DHT22;1938;50.812;7.738;2023-04-01T06:56:37;8.70;99.90
3846;DHT22;1938;50.812;7.738;2023-04-01T06:59:17;8.70;99.90
3846;DHT22;1938;50.812;7.738;2023-04-01T07:01:53;8.80;99.90
3846;DHT22;1938;50.812;7.738;2023-04-01T07:04:25;8.80;99.90
3846;DHT22;1938;50.812;7.738;2023-04-01T07:07:04;8.80;99.90
3846;DHT22;1938;50.812;7.738;2023-04-01T07:09:35;8.70;99.90
3846;DHT22;1938;50.812;7.738;2023-04-01T07:12:10;8.00;99.90
3846;DHT22;1938;50.812;7.738;2023-04-01T07:14:39;7.70;99.90
3846;DHT22;1938;50.812;7.738;2023-04-01T07:17:19;7.70;99.90
3846;DHT22;1938;50.812;7.738;2023-04-01T07:20:02;7.50;99.90
3846;DHT22;1938;50.812;7.738;2023-04-01T07:22:36;7.60;99.90
3846;DHT22;1938;50.812;7.738;2023-04-01T07:25:29;7.60;99.90
3846;DHT22;1938;50.812;7.738;2023-04-01T07:28:11;7.60;99.90
3846;DHT22;1938;50.812;7.738;2023-04-01T07:33:22;7.50;99.90
3846;DHT22;1938;50.812;7.738;2023-04-01T07:36:07;7.50;99.90
3846;DHT22;1938;50.812;7.738;2023-04-01T07:38:50;7.40;99.90
3846;DHT22;1938;50.812;7.738;2023-04-01T07:44:25;7.50;99.90
3846;DHT22;1938;50.812;7.738;2023-04-01T07:47:03;7.50;99.90
3846;DHT22;1938;50.812;7.738;2023-04-01T07:55:20;7.70;99.90
3846;DHT22;1938;50.812;7.738;2023-04-01T07:58:14;7.80;99.90
3846;DHT22;1938;50.812;7.738;2023-04-01T08:00:51;7.80;99.90
3846;DHT22;1938;50.812;7.738;2023-04-01T08:06:32;7.90;99.90
3846;DHT22;1938;50.812;7.738;2023-04-01T08:09:38;7.90;99.90
3846;DHT22;1938;50.812;7.738;2023-04-01T08:12:27;8.00;99.90
3846;DHT22;1938;50.812;7.738;2023-04-01T08:18:35;8.20;99.90
3846;DHT22;1938;50.812;7.738;2023-04-01T08:23:17;8.10;99.90
3846;DHT22;1938;50.812;7.738;2023-04-01T08:28:32;8.20;99.90
3846;DHT22;1938;50.812;7.738;2023-04-01T08:33:29;8.20;99.90
3846;DHT22;1938;50.812;7.738;2023-04-01T08:36:28;8.20;99.90
3846;DHT22;1938;50.812;7.738;2023-04-01T08:39:01;8.20;99.90
3846;DHT22;1938;50.812;7.738;2023-04-01T08:50:42;8.20;99.90
3846;DHT22;1938;50.812;7.738;2023-04-01T08:56:34;8.30;99.90
3846;DHT22;1938;50.812;7.738;2023-04-01T09:04:51;8.40;99.90
3846;DHT22;1938;50.812;7.738;2023-04-01T09:13:27;8.40;99.90
3846;DHT22;1938;50.812;7.738;2023-04-01T09:19:03;8.50;99.90
3846;DHT22;1938;50.812;7.738;2023-04-01T09:24:38;8.60;99.90
3846;DHT22;1938;50.812;7.738;2023-04-01T09:30:31;9.10;99.90
3846;DHT22;1938;50.812;7.738;2023-04-01T09:35:50;9.50;99.90
3846;DHT22;1938;50.812;7.738;2023-04-01T09:38:29;9.60;99.90
3846;DHT22;1938;50.812;7.738;2023-04-01T09:41:02;9.70;99.90
3846;DHT22;1938;50.812;7.738;2023-04-01T09:46:16;9.90;99.90
3846;DHT22;1938;50.812;7.738;2023-04-01T09:49:13;9.90;99.90
3846;DHT22;1938;50.812;7.738;2023-04-01T09:57:32;10.00;99.90
3846;DHT22;1938;50.812;7.738;2023-04-01T10:11:41;9.90;99.90
3846;DHT22;1938;50.812;7.738;2023-04-01T10:14:37;9.90;99.90
3846;DHT22;1938;50.812;7.738;2023-04-01T10:20:04;9.90;99.90
3846;DHT22;1938;50.812;7.738;2023-04-01T10:22:40;9.90;99.90
3846;DHT22;1938;50.812;7.738;2023-04-01T10:29:35;10.00;99.90
3846;DHT22;1938;50.812;7.738;2023-04-01T10:45:24;9.20;99.90
3846;DHT22;1938;50.812;7.738;2023-04-01T10:53:54;8.70;99.90
3846;DHT22;1938;50.812;7.738;2023-04-01T10:56:46;8.70;99.90
3846;DHT22;1938;50.812;7.738;2023-04-01T11:20:28;8.80;99.90
3846;DHT22;1938;50.812;7.738;2023-04-01T11:29:03;9.00;99.90
3846;DHT22;1938;50.812;7.738;2023-04-01T11:31:37;9.00;99.90
3846;DHT22;1938;50.812;7.738;2023-04-01T11:37:15;8.70;99.90
3846;DHT22;1938;50.812;7.738;2023-04-01T11:40:09;8.70;99.90
3846;DHT22;1938;50.812;7.738;2023-04-01T11:42:46;8.70;99.90
3846;DHT22;1938;50.812;7.738;2023-04-01T11:59:06;9.00;99.90
3846;DHT22;1938;50.812;7.738;2023-04-01T12:04:54;8.90;99.90
3846;DHT22;1938;50.812;7.738;2023-04-01T12:10:40;8.80;99.90
3846;DHT22;1938;50.812;7.738;2023-04-01T12:20:54;8.80;99.90
3846;DHT22;1938;50.812;7.738;2023-04-01T12:31:53;9.80;99.90
3846;DHT22;1938;50.812;7.738;2023-04-01T12:37:45;10.30;99.90
3846;DHT22;1938;50.812;7.738;2023-04-01T12:41:03;10.20;99.90
3846;DHT22;1938;50.812;7.738;2023-04-01T12:44:23;10.20;99.90
3846;DHT22;1938;50.812;7.738;2023-04-01T12:46:40;10.20;99.90
3846;DHT22;1938;50.812;7.738;2023-04-01T12:52:05;10.50;99.90
3846;DHT22;1938;50.812;7.738;2023-04-01T12:54:54;10.60;99.90
3846;DHT22;1938;50.812;7.738;2023-04-01T13:00:09;10.50;99.90
3846;DHT22;1938;50.812;7.738;2023-04-01T13:02:57;10.40;99.90
3846;DHT22;1938;50.812;7.738;2023-04-01T13:05:39;10.30;99.90
3846;DHT22;1938;50.812;7.738;2023-04-01T13:24:07;9.60;99.90
3846;DHT22;1938;50.812;7.738;2023-04-01T13:29:40;9.80;99.90
3846;DHT22;1938;50.812;7.738;2023-04-01T13:32:19;9.90;99.90
3846;DHT22;1938;50.812;7.738;2023-04-01T13:40:32;10.30;99.90
3846;DHT22;1938;50.812;7.738;2023-04-01T13:43:24;10.40;99.90
3846;DHT22;1938;50.812;7.738;2023-04-01T13:48:44;10.30;99.90
3846;DHT22;1938;50.812;7.738;2023-04-01T13:54:21;10.30;99.90
3846;DHT22;1938;50.812;7.738;2023-04-01T14:00:16;10.60;99.90
3846;DHT22;1938;50.812;7.738;2023-04-01T14:05:55;10.40;99.90
3846;DHT22;1938;50.812;7.738;2023-04-01T14:11:22;10.10;99.90
3846;DHT22;1938;50.812;7.738;2023-04-01T14:23:05;9.50;99.90
3846;DHT22;1938;50.812;7.738;2023-04-01T14:31:02;9.40;99.90
3846;DHT22;1938;50.812;7.738;2023-04-01T14:47:41;9.50;99.90
3846;DHT22;1938;50.812;7.738;2023-04-01T14:58:15;9.60;99.90
3846;DHT22;1938;50.812;7.738;2023-04-01T15:00:47;9.60;99.90
3846;DHT22;1938;50.812;7.738;2023-04-01T15:03:28;9.60;99.90
3846;DHT22;1938;50.812;7.738;2023-04-01T15:11:29;9.50;99.90
3846;DHT22;1938;50.812;7.738;2023-04-01T15:19:46;9.50;99.90
3846;DHT22;1938;50.812;7.738;2023-04-01T15:30:57;9.70;99.90
3846;DHT22;1938;50.812;7.738;2023-04-01T15:39:24;9.80;99.90
3846;DHT22;1938;50.812;7.738;2023-04-01T15:52:37;10.10;99.90
3846;DHT22;1938;50.812;7.738;2023-04-01T15:55:26;10.20;99.90
3846;DHT22;1938;50.812;7.738;2023-04-01T15:58:59;10.20;99.90
3846;DHT22;1938;50.812;7.738;2023-04-01T16:01:14;10.20;99.90
3846;DHT22;1938;50.812;7.738;2023-04-01T16:04:11;10.20;99.90
3846;DHT22;1938;50.812;7.738;2023-04-01T16:07:11;10.20;99.90
3846;DHT22;1938;50.812;7.738;2023-04-01T16:15:03;10.10;99.90
3846;DHT22;1938;50.812;7.738;2023-04-01T16:23:40;9.70;99.90
3846;DHT22;1938;50.812;7.738;2023-04-01T16:26:15;9.70;99.90
3846;DHT22;1938;50.812;7.738;2023-04-01T16:29:12;9.60;99.90
3846;DHT22;1938;50.812;7.738;2023-04-01T16:37:41;9.50;99.90
3846;DHT22;1938;50.812;7.738;2023-04-01T16:43:12;9.50;99.90
3846;DHT22;1938;50.812;7.738;2023-04-01T16:51:54;9.70;99.90
3846;DHT22;1938;50.812;7.738;2023-04-01T17:02:52;8.90;99.90
3846;DHT22;1938;50.812;7.738;2023-04-01T17:24:51;8.50;99.90
3846;DHT22;1938;50.812;7.738;2023-04-01T17:27:31;8.50;99.90
3846;DHT22;1938;50.812;7.738;2023-04-01T17:30:22;8.50;99.90
3846;DHT22;1938;50.812;7.738;2023-04-01T17:35:32;8.40;99.90
3846;DHT22;1938;50.812;7.738;2023-04-01T17:40:49;8.40;99.90
3846;DHT22;1938;50.812;7.738;2023-04-01T17:45:56;8.50;99.90
3846;DHT22;1938;50.812;7.738;2023-04-01T17:53:59;8.40;99.90
3846;DHT22;1938;50.812;7.738;2023-04-01T17:56:38;8.40;99.90
3846;DHT22;1938;50.812;7.738;2023-04-01T18:01:49;8.40;99.90
3846;DHT22;1938;50.812;7.738;2023-04-01T18:04:40;8.40;99.90
3846;DHT22;1938;50.812;7.738;2023-04-01T18:07:30;8.40;99.90
3846;DHT22;1938;50.812;7.738;2023-04-01T18:10:37;8.40;99.90
3846;DHT22;1938;50.812;7.738;2023-04-01T18:16:21;8.30;99.90
3846;DHT22;1938;50.812;7.738;2023-04-01T18:21:53;8.30;99.90
3846;DHT22;1938;50.812;7.738;2023-04-01T18:24:30;8.20;99.90
3846;DHT22;1938;50.812;7.738;2023-04-01T18:27:32;8.20;99.90
3846;DHT22;1938;50.812;7.738;2023-04-01T18:30:15;8.20;99.90
3846;DHT22;1938;50.812;7.738;2023-04-01T18:33:03;8.20;99.90
3846;DHT22;1938;50.812;7.738;2023-04-01T18:35:47;8.20;99.90
3846;DHT22;1938;50.812;7.738;2023-04-01T18:38:19;8.20;99.90
3846;DHT22;1938;50.812;7.738;2023-04-01T18:44:11;8.20;99.90
3846;DHT22;1938;50.812;7.738;2023-04-01T18:47:14;8.20;99.90
3846;DHT22;1938;50.812;7.738;2023-04-01T18:52:36;8.10;99.90
3846;DHT22;1938;50.812;7.738;2023-04-01T18:57:51;8.10;99.90
3846;DHT22;1938;50.812;7.738;2023-04-01T19:00:45;8.20;99.90
3846;DHT22;1938;50.812;7.738;2023-04-01T19:03:20;8.10;99.90
3846;DHT22;1938;50.812;7.738;2023-04-01T19:05:49;8.10;99.90
3846;DHT22;1938;50.812;7.738;2023-04-01T19:08:34;8.10;99.90
3846;DHT22;1938;50.812;7.738;2023-04-01T19:21:44;8.00;99.90
3846;DHT22;1938;50.812;7.738;2023-04-01T19:30:03;7.90;99.90
3846;DHT22;1938;50.812;7.738;2023-04-01T19:38:36;7.80;99.90
3846;DHT22;1938;50.812;7.738;2023-04-01T19:41:32;7.80;99.90
3846;DHT22;1938;50.812;7.738;2023-04-01T19:47:06;7.80;99.90
3846;DHT22;1938;50.812;7.738;2023-04-01T19:49:46;7.80;99.90
3846;DHT22;1938;50.812;7.738;2023-04-01T19:55:05;7.70;99.90
3846;DHT22;1938;50.812;7.738;2023-04-01T19:57:42;7.70;99.90
3846;DHT22;1938;50.812;7.738;2023-04-01T20:00:30;7.70;99.90
3846;DHT22;1938;50.812;7.738;2023-04-01T20:08:58;7.70;99.90
3846;DHT22;1938;50.812;7.738;2023-04-01T20:14:29;7.70;99.90
3846;DHT22;1938;50.812;7.738;2023-04-01T20:24:51;7.70;99.90
3846;DHT22;1938;50.812;7.738;2023-04-01T20:27:22;7.70;99.90
3846;DHT22;1938;50.812;7.738;2023-04-01T20:30:07;7.60;99.90
3846;DHT22;1938;50.812;7.738;2023-04-01T20:33:01;7.60;99.90
3846;DHT22;1938;50.812;7.738;2023-04-01T20:38:41;7.70;99.90
3846;DHT22;1938;50.812;7.738;2023-04-01T20:41:28;7.60;99.90
3846;DHT22;1938;50.812;7.738;2023-04-01T20:54:47;7.60;99.90
3846;DHT22;1938;50.812;7.738;2023-04-01T21:16:53;7.50;99.90
3846;DHT22;1938;50.812;7.738;2023-04-01T21:20:03;7.50;99.90
3846;DHT22;1938;50.812;7.738;2023-04-01T21:23:19;7.60;99.90
3846;DHT22;1938;50.812;7.738;2023-04-01T21:28:28;7.50;99.90
3846;DHT22;1938;50.812;7.738;2023-04-01T21:33:58;7.50;99.90
3846;DHT22;1938;50.812;7.738;2023-04-01T21:42:09;7.60;99.90
3846;DHT22;1938;50.812;7.738;2023-04-01T22:01:43;7.60;99.90
3846;DHT22;1938;50.812;7.738;2023-04-01T22:04:21;7.50;99.90
3846;DHT22;1938;50.812;7.738;2023-04-01T22:07:17;7.50;99.90
3846;DHT22;1938;50.812;7.738;2023-04-01T22:09:59;7.50;99.90
3846;DHT22;1938;50.812;7.738;2023-04-01T22:15:31;7.50;99.90
3846;DHT22;1938;50.812;7.738;2023-04-01T22:21:06;7.50;99.90
3846;DHT22;1938;50.812;7.738;2023-04-01T22:23:45;7.50;99.90
3846;DHT22;1938;50.812;7.738;2023-04-01T22:26:35;7.50;99.90
3846;DHT22;1938;50.812;7.738;2023-04-01T22:29:28;7.50;99.90
3846;DHT22;1938;50.812;7.738;2023-04-01T22:32:05;7.50;99.90
3846;DHT22;1938;50.812;7.738;2023-04-01T22:37:50;7.50;99.90
3846;DHT22;1938;50.812;7.738;2023-04-01T22:43:16;7.40;99.90
3846;DHT22;1938;50.812;7.738;2023-04-01T22:46:18;7.50;99.90
3846;DHT22;1938;50.812;7.738;2023-04-01T22:48:57;7.40;99.90
3846;DHT22;1938;50.812;7.738;2023-04-01T22:57:04;7.40;99.90
3846;DHT22;1938;50.812;7.738;2023-04-01T22:59:42;7.40;99.90
3846;DHT22;1938;50.812;7.738;2023-04-01T23:02:29;7.40;99.90
3846;DHT22;1938;50.812;7.738;2023-04-01T23:04:59;7.40;99.90
3846;DHT22;1938;50.812;7.738;2023-04-01T23:10:05;7.40;99.90
3846;DHT22;1938;50.812;7.738;2023-04-01T23:12:34;7.40;99.90
3846;DHT22;1938;50.812;7.738;2023-04-01T23:15:01;7.40;99.90
3846;DHT22;1938;50.812;7.738;2023-04-01T23:26:02;7.40;99.90
3846;DHT22;1938;50.812;7.738;2023-04-01T23:28:41;7.40;99.90
3846;DHT22;1938;50.812;7.738;2023-04-01T23:34:00;7.40;99.90
3846;DHT22;1938;50.812;7.738;2023-04-01T23:36:28;7.40;99.90
3846;DHT22;1938;50.812;7.738;2023-04-01T23:38:54;7.40;99.90
3846;DHT22;1938;50.812;7.738;2023-04-01T23:41:25;7.40;99.90
3846;DHT22;1938;50.812;7.738;2023-04-01T23:44:09;7.40;99.90
3846;DHT22;1938;50.812;7.738;2023-04-01T23:46:37;7.40;99.90
3846;DHT22;1938;50.812;7.738;2023-04-01T23:49:06;7.40;99.90
3846;DHT22;1938;50.812;7.738;2023-04-01T23:51:39;7.40;99.90
3846;DHT22;1938;50.812;7.738;2023-04-01T23:54:19;7.40;99.90
3846;DHT22;1938;50.812;7.738;2023-04-01T23:56:51;7.40;99.90
3846;DHT22;1938;50.812;7.738;2023-04-01T23:59:23;7.40;99.90
